createdAt,value
2018-11-29T00:00:37.182Z,6.30
2018-11-29T00:03:07.107Z,5.70
2018-11-29T00:05:36.523Z,6.70
2018-11-29T00:08:05.718Z,11.03
2018-11-29T00:10:34.980Z,12.70
2018-11-29T00:13:04.180Z,7.57
2018-11-29T00:15:33.259Z,6.73
2018-11-29T00:18:02.576Z,7.87
2018-11-29T00:20:31.804Z,8.40
2018-11-29T00:23:00.951Z,6.90
2018-11-29T00:25:30.151Z,8.00
2018-11-29T00:27:59.343Z,7.70
2018-11-29T00:30:28.548Z,8.37
2018-11-29T00:32:57.883Z,7.23
2018-11-29T00:35:27.017Z,7.60
2018-11-29T00:37:56.184Z,6.47
2018-11-29T00:40:25.605Z,5.80
2018-11-29T00:42:54.784Z,6.63
2018-11-29T00:45:24.699Z,9.40
2018-11-29T00:47:54.122Z,8.20
2018-11-29T00:50:23.513Z,7.03
2018-11-29T00:52:52.732Z,6.20
2018-11-29T00:55:23.736Z,5.70
2018-11-29T00:57:53.173Z,5.97
2018-11-29T01:00:24.035Z,5.03
2018-11-29T01:02:53.274Z,4.47
2018-11-29T01:05:22.523Z,4.80
2018-11-29T01:07:51.859Z,4.90
2018-11-29T01:10:20.910Z,4.40
2018-11-29T01:12:50.734Z,5.23
2018-11-29T01:15:20.917Z,4.90
2018-11-29T01:17:50.504Z,5.33
2018-11-29T01:20:21.626Z,5.23
2018-11-29T01:22:50.861Z,4.70
2018-11-29T01:25:19.951Z,4.93
2018-11-29T01:27:49.983Z,4.80
2018-11-29T01:30:20.727Z,5.83
2018-11-29T01:32:50.071Z,5.37
2018-11-29T01:35:20.123Z,5.70
2018-11-29T01:37:49.722Z,5.80
2018-11-29T01:40:20.403Z,5.50
2018-11-29T01:42:59.267Z,5.63
2018-11-29T01:45:28.554Z,5.50
2018-11-29T01:47:57.558Z,5.57
2018-11-29T01:50:26.848Z,5.73
2018-11-29T01:52:56.159Z,5.90
2018-11-29T01:55:25.359Z,6.10
2018-11-29T01:57:54.546Z,5.90
2018-11-29T02:00:23.851Z,6.67
2018-11-29T02:02:53.407Z,6.10
2018-11-29T02:05:22.820Z,6.20
2018-11-29T02:07:51.813Z,5.83
2018-11-29T02:10:26.136Z,5.93
2018-11-29T02:12:55.528Z,6.57
2018-11-29T02:15:24.466Z,5.97
2018-11-29T02:17:53.313Z,6.93
2018-11-29T02:20:22.611Z,6.17
2018-11-29T02:22:51.899Z,5.67
2018-11-29T02:25:21.248Z,6.03
2018-11-29T02:27:50.347Z,6.67
2018-11-29T02:30:22.273Z,6.63
2018-11-29T02:32:51.614Z,6.00
2018-11-29T02:35:20.834Z,4.20
2018-11-29T02:37:49.866Z,4.67
2018-11-29T02:40:19.259Z,4.00
2018-11-29T02:42:49.949Z,4.40
2018-11-29T02:45:23.842Z,4.30
2018-11-29T02:47:53.124Z,4.17
2018-11-29T02:50:22.095Z,3.97
2018-11-29T02:52:51.436Z,3.80
2018-11-29T02:55:20.410Z,3.67
2018-11-29T02:57:49.535Z,3.60
2018-11-29T03:00:19.770Z,3.37
2018-11-29T03:02:49.845Z,3.13
2018-11-29T03:05:19.359Z,2.40
2018-11-29T03:07:48.694Z,3.27
2018-11-29T03:10:22.835Z,2.50
2018-11-29T03:12:51.748Z,2.90
2018-11-29T03:15:20.700Z,2.77
2018-11-29T03:17:49.773Z,2.80
2018-11-29T03:20:18.946Z,2.40
2018-11-29T03:22:48.235Z,2.80
2018-11-29T03:25:17.678Z,2.43
2018-11-29T03:27:47.039Z,3.00
2018-11-29T03:30:17.588Z,2.50
2018-11-29T03:32:46.692Z,2.93
2018-11-29T03:35:15.998Z,2.93
2018-11-29T03:37:45.228Z,3.33
2018-11-29T03:40:16.163Z,3.23
2018-11-29T03:42:45.758Z,4.67
2018-11-29T03:45:15.863Z,4.47
2018-11-29T03:47:45.507Z,3.13
2018-11-29T03:50:18.435Z,3.93
2018-11-29T03:52:47.948Z,4.00
2018-11-29T03:55:17.212Z,4.43
2018-11-29T03:57:46.523Z,4.50
2018-11-29T04:00:16.762Z,4.30
2018-11-29T04:02:47.647Z,4.20
2018-11-29T04:05:17.087Z,6.63
2018-11-29T04:07:46.294Z,7.50
2018-11-29T04:10:17.124Z,5.60
2018-11-29T04:12:46.421Z,5.10
2018-11-29T04:15:16.303Z,5.00
2018-11-29T04:17:45.784Z,5.10
2018-11-29T04:20:16.050Z,4.07
2018-11-29T04:22:45.273Z,3.77
2018-11-29T04:25:15.269Z,3.63
2018-11-29T04:27:44.486Z,4.17
2018-11-29T04:30:15.309Z,3.60
2018-11-29T04:32:44.804Z,3.83
2018-11-29T04:35:14.418Z,4.70
2018-11-29T04:37:43.365Z,5.20
2018-11-29T04:40:13.615Z,5.73
2018-11-29T04:42:42.927Z,6.83
2018-11-29T04:45:13.103Z,6.93
2018-11-29T04:47:42.036Z,4.57
2018-11-29T04:50:11.211Z,5.10
2018-11-29T04:52:40.375Z,6.27
2018-11-29T04:55:10.640Z,7.93
2018-11-29T04:57:39.614Z,5.83
2018-11-29T05:00:12.708Z,5.13
2018-11-29T05:02:42.048Z,6.73
2018-11-29T05:05:11.626Z,8.03
2018-11-29T05:07:40.621Z,10.40
2018-11-29T05:10:11.159Z,10.90
2018-11-29T05:12:40.447Z,11.10
2018-11-29T05:15:10.882Z,7.93
2018-11-29T05:17:39.726Z,7.83
2018-11-29T05:20:09.316Z,7.93
2018-11-29T05:22:38.676Z,7.50
2018-11-29T05:25:08.992Z,7.47
2018-11-29T05:27:38.443Z,6.60
2018-11-29T05:30:11.040Z,6.47
2018-11-29T05:32:40.396Z,7.50
2018-11-29T05:35:10.839Z,9.40
2018-11-29T05:37:40.116Z,10.37
2018-11-29T05:40:11.003Z,11.07
2018-11-29T05:42:40.343Z,10.40
2018-11-29T05:45:10.274Z,10.77
2018-11-29T05:47:39.538Z,13.17
2018-11-29T05:50:10.594Z,16.20
2018-11-29T05:52:40.010Z,15.27
2018-11-29T05:55:10.715Z,14.63
2018-11-29T05:57:40.027Z,17.47
2018-11-29T06:00:11.835Z,17.07
2018-11-29T06:02:40.682Z,19.57
2018-11-29T06:05:10.876Z,19.90
2018-11-29T06:07:40.063Z,26.53
2018-11-29T06:10:09.241Z,37.97
2018-11-29T06:12:38.293Z,33.13
2018-11-29T06:15:08.892Z,25.90
2018-11-29T06:17:38.171Z,40.80
2018-11-29T06:20:09.812Z,43.20
2018-11-29T06:22:39.128Z,15.37
2018-11-29T06:25:08.437Z,26.30
2018-11-29T06:27:37.771Z,18.37
2018-11-29T06:30:19.686Z,19.63
2018-11-29T06:32:49.247Z,24.30
2018-11-29T06:35:18.475Z,18.50
2018-11-29T06:37:48.182Z,17.00
2018-11-29T06:40:18.009Z,24.10
2018-11-29T06:42:47.215Z,16.03
2018-11-29T06:45:19.477Z,16.57
2018-11-29T06:47:49.371Z,18.47
2018-11-29T06:50:18.605Z,16.97
2018-11-29T06:52:48.780Z,17.07
2018-11-29T06:55:20.843Z,21.17
2018-11-29T06:57:50.260Z,28.10
2018-11-29T07:00:36.518Z,23.50
2018-11-29T07:03:06.227Z,16.23
2018-11-29T07:05:35.421Z,18.30
2018-11-29T07:08:04.700Z,20.07
2018-11-29T07:10:34.487Z,19.20
2018-11-29T07:13:04.872Z,16.87
2018-11-29T07:15:33.855Z,14.63
2018-11-29T07:18:03.178Z,15.83
2018-11-29T07:20:32.367Z,18.63
2018-11-29T07:23:01.380Z,26.27
2018-11-29T07:25:30.668Z,24.83
2018-11-29T07:27:59.910Z,23.00
2018-11-29T07:30:29.212Z,10.00
2018-11-29T07:32:58.188Z,11.50
2018-11-29T07:35:27.518Z,13.97
2018-11-29T07:37:56.687Z,10.57
2018-11-29T07:40:26.024Z,9.03
2018-11-29T07:42:55.711Z,11.80
2018-11-29T07:45:25.131Z,10.67
2018-11-29T07:47:54.402Z,13.40
2018-11-29T07:50:23.997Z,11.63
2018-11-29T07:52:53.297Z,20.13
2018-11-29T07:55:23.039Z,19.90
2018-11-29T07:57:53.325Z,17.10
2018-11-29T08:00:22.506Z,16.17
2018-11-29T08:02:51.806Z,17.07
2018-11-29T08:05:21.103Z,16.40
2018-11-29T08:07:50.455Z,22.07
2018-11-29T08:10:20.538Z,21.43
2018-11-29T08:12:49.715Z,60.30
2018-11-29T08:15:20.047Z,37.83
2018-11-29T08:17:49.346Z,28.70
2018-11-29T08:20:19.641Z,38.47
2018-11-29T08:22:48.925Z,31.03
2018-11-29T08:25:18.270Z,35.73
2018-11-29T08:27:47.117Z,27.03
2018-11-29T08:30:16.851Z,31.93
2018-11-29T08:32:46.007Z,45.13
2018-11-29T08:35:15.747Z,32.10
2018-11-29T08:37:46.565Z,19.07
2018-11-29T08:40:17.155Z,11.67
2018-11-29T08:42:46.540Z,12.43
2018-11-29T08:45:15.687Z,9.37
2018-11-29T08:47:44.859Z,9.83
2018-11-29T08:50:14.639Z,7.87
2018-11-29T08:52:45.418Z,8.37
2018-11-29T08:55:17.395Z,6.50
2018-11-29T08:57:47.155Z,9.77
2018-11-29T09:00:18.003Z,8.50
2018-11-29T09:02:47.051Z,10.43
2018-11-29T09:05:16.372Z,5.97
2018-11-29T09:07:46.531Z,9.60
2018-11-29T09:10:17.751Z,5.43
2018-11-29T09:12:46.935Z,6.57
2018-11-29T09:15:16.888Z,7.40
2018-11-29T09:17:45.919Z,6.53
2018-11-29T09:20:19.144Z,6.60
2018-11-29T09:22:48.051Z,6.60
2018-11-29T09:25:18.051Z,9.83
2018-11-29T09:27:47.031Z,12.60
2018-11-29T09:30:19.040Z,13.10
2018-11-29T09:32:49.164Z,9.33
2018-11-29T09:35:18.347Z,11.03
2018-11-29T09:37:47.644Z,9.70
2018-11-29T09:40:18.243Z,8.07
2018-11-29T09:42:47.645Z,7.67
2018-11-29T09:45:19.669Z,27.67
2018-11-29T09:47:49.974Z,10.73
2018-11-29T09:50:19.119Z,7.30
2018-11-29T09:52:48.119Z,9.27
2018-11-29T09:55:18.129Z,11.50
2018-11-29T09:57:47.847Z,8.70
2018-11-29T10:00:27.201Z,8.80
2018-11-29T10:02:52.030Z,7.93
2018-11-29T10:05:21.285Z,10.23
2018-11-29T10:07:50.664Z,13.53
2018-11-29T10:10:19.915Z,6.50
2018-11-29T10:12:49.394Z,10.33
2018-11-29T10:15:18.549Z,8.93
2018-11-29T10:17:47.715Z,9.23
2018-11-29T10:20:16.791Z,13.50
2018-11-29T10:22:46.046Z,8.07
2018-11-29T10:25:15.715Z,11.30
2018-11-29T10:27:50.899Z,7.40
2018-11-29T10:30:25.553Z,14.80
2018-11-29T10:32:54.963Z,9.83
2018-11-29T10:35:23.887Z,11.53
2018-11-29T10:37:53.209Z,8.27
2018-11-29T10:40:22.559Z,12.13
2018-11-29T10:42:52.028Z,16.10
2018-11-29T10:45:21.611Z,10.97
2018-11-29T10:47:52.782Z,8.50
2018-11-29T10:50:21.283Z,12.80
2018-11-29T10:52:50.656Z,6.03
2018-11-29T10:55:20.315Z,8.23
2018-11-29T10:57:49.555Z,12.27
2018-11-29T11:00:28.497Z,12.53
2018-11-29T11:03:04.595Z,10.57
2018-11-29T11:05:33.756Z,12.30
2018-11-29T11:08:08.026Z,7.47
2018-11-29T11:10:32.314Z,11.47
2018-11-29T11:13:01.539Z,14.03
2018-11-29T11:15:30.747Z,8.67
2018-11-29T11:17:59.778Z,8.47
2018-11-29T11:20:28.896Z,11.43
2018-11-29T11:22:58.067Z,8.93
2018-11-29T11:25:27.117Z,7.43
2018-11-29T11:27:56.342Z,6.70
2018-11-29T11:30:25.364Z,7.70
2018-11-29T11:32:54.250Z,9.77
2018-11-29T11:35:23.388Z,22.17
2018-11-29T11:37:52.576Z,12.40
2018-11-29T11:40:21.599Z,6.87
2018-11-29T11:42:50.759Z,8.67
2018-11-29T11:45:20.723Z,13.97
2018-11-29T11:47:49.756Z,9.30
2018-11-29T11:50:23.667Z,10.40
2018-11-29T11:52:53.278Z,7.07
2018-11-29T11:55:22.312Z,8.27
2018-11-29T11:57:51.613Z,8.10
2018-11-29T12:00:23.524Z,10.03
2018-11-29T12:03:09.951Z,8.03
2018-11-29T12:05:39.250Z,12.53
2018-11-29T12:08:08.660Z,7.93
2018-11-29T12:10:38.150Z,7.23
2018-11-29T12:13:08.162Z,9.13
2018-11-29T12:15:37.979Z,8.30
2018-11-29T12:18:08.918Z,8.80
2018-11-29T12:20:37.954Z,7.97
2018-11-29T12:23:07.878Z,11.37
2018-11-29T12:25:37.066Z,10.10
2018-11-29T12:28:06.059Z,11.73
2018-11-29T12:30:36.896Z,16.53
2018-11-29T12:33:07.381Z,11.23
2018-11-29T12:35:36.673Z,10.47
2018-11-29T12:38:05.995Z,9.73
2018-11-29T12:40:35.384Z,12.53
2018-11-29T12:43:04.659Z,16.77
2018-11-29T12:45:33.814Z,18.40
2018-11-29T12:48:03.175Z,16.73
2018-11-29T12:50:32.414Z,15.57
2018-11-29T12:53:01.587Z,15.37
2018-11-29T12:55:30.933Z,14.80
2018-11-29T12:58:05.236Z,7.93
2018-11-29T13:00:29.585Z,19.13
2018-11-29T13:02:59.651Z,14.53
2018-11-29T13:05:29.544Z,14.70
2018-11-29T13:07:58.807Z,6.43
2018-11-29T13:10:28.447Z,7.83
2018-11-29T13:12:57.367Z,18.23
2018-11-29T13:15:32.714Z,27.13
2018-11-29T13:18:04.031Z,42.80
2018-11-29T13:20:33.327Z,17.57
2018-11-29T13:23:02.531Z,22.60
2018-11-29T13:25:31.466Z,20.53
2018-11-29T13:28:00.886Z,23.03
2018-11-29T13:30:30.087Z,23.57
2018-11-29T13:32:59.325Z,13.70
2018-11-29T13:35:32.543Z,15.73
2018-11-29T13:38:07.596Z,12.17
2018-11-29T13:40:36.784Z,12.60
2018-11-29T13:43:05.811Z,11.40
2018-11-29T13:45:35.244Z,17.03
2018-11-29T13:48:04.452Z,25.43
2018-11-29T13:50:33.740Z,21.17
2018-11-29T13:53:03.093Z,25.57
2018-11-29T13:55:32.376Z,16.20
2018-11-29T13:58:01.689Z,9.73
2018-11-29T14:00:31.077Z,18.87
2018-11-29T14:03:06.508Z,14.03
2018-11-29T14:05:36.235Z,11.13
2018-11-29T14:08:06.084Z,14.20
2018-11-29T14:10:35.344Z,12.47
2018-11-29T14:13:04.579Z,11.03
2018-11-29T14:15:33.650Z,12.60
2018-11-29T14:18:03.018Z,15.40
2018-11-29T14:20:35.410Z,17.13
2018-11-29T14:23:01.636Z,19.03
2018-11-29T14:25:30.832Z,11.00
2018-11-29T14:27:59.840Z,10.63
2018-11-29T14:30:30.115Z,11.50
2018-11-29T14:33:00.489Z,10.07
2018-11-29T14:35:29.815Z,9.10
2018-11-29T14:37:59.173Z,12.93
2018-11-29T14:40:29.860Z,11.67
2018-11-29T14:42:59.112Z,12.67
2018-11-29T14:45:28.620Z,12.60
2018-11-29T14:47:57.886Z,13.43
2018-11-29T14:50:34.870Z,12.83
2018-11-29T14:53:04.112Z,17.37
2018-11-29T14:55:33.296Z,14.67
2018-11-29T14:58:02.225Z,23.17
2018-11-29T15:00:31.364Z,16.87
2018-11-29T15:03:01.568Z,15.43
2018-11-29T15:05:32.015Z,20.57
2018-11-29T15:08:01.117Z,40.10
2018-11-29T15:10:30.357Z,25.00
2018-11-29T15:12:59.703Z,13.97
2018-11-29T15:15:28.579Z,12.23
2018-11-29T15:17:57.679Z,17.63
2018-11-29T15:20:29.652Z,18.87
2018-11-29T15:22:58.733Z,22.40
2018-11-29T15:25:27.852Z,15.23
2018-11-29T15:27:56.844Z,13.37
2018-11-29T15:30:26.035Z,16.27
2018-11-29T15:32:54.884Z,24.87
2018-11-29T15:35:24.062Z,17.63
2018-11-29T15:37:53.308Z,19.17
2018-11-29T15:40:22.560Z,19.67
2018-11-29T15:42:51.825Z,23.87
2018-11-29T15:45:22.119Z,25.37
2018-11-29T15:47:51.432Z,27.97
2018-11-29T15:50:20.403Z,28.27
2018-11-29T15:52:49.624Z,38.80
2018-11-29T15:55:19.763Z,31.87
2018-11-29T15:57:49.658Z,33.40
2018-11-29T16:00:25.922Z,23.70
2018-11-29T16:02:55.936Z,23.57
2018-11-29T16:05:25.015Z,20.90
2018-11-29T16:07:54.282Z,22.73
2018-11-29T16:10:24.083Z,23.10
2018-11-29T16:12:53.404Z,27.13
2018-11-29T16:15:22.845Z,23.07
2018-11-29T16:17:52.844Z,26.30
2018-11-29T16:20:27.636Z,25.90
2018-11-29T16:22:56.937Z,26.37
2018-11-29T16:25:26.075Z,30.47
2018-11-29T16:27:55.372Z,39.47
2018-11-29T16:30:26.619Z,30.60
2018-11-29T16:32:56.603Z,24.63
2018-11-29T16:35:25.749Z,22.07
2018-11-29T16:37:54.832Z,20.87
2018-11-29T16:40:23.807Z,20.87
2018-11-29T16:42:53.065Z,18.53
2018-11-29T16:45:22.564Z,16.83
2018-11-29T16:47:51.772Z,27.73
2018-11-29T16:50:21.887Z,22.73
2018-11-29T16:52:51.299Z,18.83
2018-11-29T16:55:20.500Z,18.57
2018-11-29T16:57:51.447Z,20.43
2018-11-29T17:00:22.056Z,17.43
2018-11-29T17:02:51.164Z,18.97
2018-11-29T17:05:20.516Z,20.53
2018-11-29T17:07:49.667Z,21.03
2018-11-29T17:10:20.179Z,22.00
2018-11-29T17:12:51.706Z,20.70
2018-11-29T17:15:21.256Z,17.67
2018-11-29T17:17:50.135Z,17.07
2018-11-29T17:20:20.419Z,22.00
2018-11-29T17:22:50.685Z,14.93
2018-11-29T17:25:19.860Z,11.23
2018-11-29T17:27:49.667Z,18.27
2018-11-29T17:30:21.641Z,18.03
2018-11-29T17:32:55.293Z,15.43
2018-11-29T17:35:24.602Z,19.83
2018-11-29T17:37:54.847Z,22.20
2018-11-29T17:40:24.800Z,11.90
2018-11-29T17:42:55.029Z,15.70
2018-11-29T17:45:25.608Z,16.23
2018-11-29T17:47:56.236Z,15.47
2018-11-29T17:50:27.716Z,12.80
2018-11-29T17:52:57.171Z,13.57
2018-11-29T17:55:26.928Z,16.53
2018-11-29T17:57:56.221Z,10.60
2018-11-29T18:00:26.856Z,10.87
2018-11-29T18:02:56.175Z,11.43
2018-11-29T18:05:26.903Z,9.97
2018-11-29T18:07:56.004Z,9.43
2018-11-29T18:10:27.256Z,13.20
2018-11-29T18:13:02.972Z,10.00
2018-11-29T18:15:33.742Z,15.57
2018-11-29T18:18:03.890Z,11.27
2018-11-29T18:20:33.375Z,11.43
2018-11-29T18:23:02.631Z,10.53
2018-11-29T18:25:32.759Z,38.03
2018-11-29T18:28:01.907Z,26.87
2018-11-29T18:30:31.187Z,25.63
2018-11-29T18:33:00.435Z,11.57
2018-11-29T18:35:29.748Z,24.80
2018-11-29T18:37:59.102Z,29.17
2018-11-29T18:40:27.968Z,13.37
2018-11-29T18:42:59.223Z,14.60
2018-11-29T18:45:28.537Z,13.90
2018-11-29T18:47:57.913Z,16.23
2018-11-29T18:50:27.447Z,11.33
2018-11-29T18:52:56.567Z,11.90
2018-11-29T18:55:26.660Z,9.97
2018-11-29T18:57:57.083Z,10.10
2018-11-29T19:00:31.480Z,11.03
2018-11-29T19:03:00.520Z,11.07
2018-11-29T19:05:29.787Z,12.20
2018-11-29T19:07:59.030Z,14.10
2018-11-29T19:10:28.165Z,19.50
2018-11-29T19:13:11.823Z,18.20
2018-11-29T19:15:41.219Z,14.63
2018-11-29T19:18:11.041Z,12.13
2018-11-29T19:20:40.033Z,12.33
2018-11-29T19:23:09.105Z,11.33
2018-11-29T19:25:38.511Z,12.57
2018-11-29T19:28:08.658Z,10.97
2018-11-29T19:30:38.238Z,10.57
2018-11-29T19:33:24.644Z,14.07
2018-11-29T19:35:54.999Z,15.73
2018-11-29T19:38:24.652Z,11.47
2018-11-29T19:40:54.535Z,10.50
2018-11-29T19:43:23.642Z,10.57
2018-11-29T19:45:53.967Z,11.40
2018-11-29T19:48:24.416Z,10.83
2018-11-29T19:50:53.835Z,11.77
2018-11-29T19:53:26.082Z,11.63
2018-11-29T19:55:56.993Z,12.43
2018-11-29T19:58:26.065Z,15.30
2018-11-29T20:00:56.284Z,11.63
2018-11-29T20:03:25.692Z,11.77
2018-11-29T20:05:54.638Z,12.70
2018-11-29T20:08:23.888Z,14.47
2018-11-29T20:10:53.815Z,13.90
2018-11-29T20:13:23.128Z,12.80
2018-11-29T20:15:53.849Z,19.30
2018-11-29T20:18:22.778Z,15.93
2018-11-29T20:20:51.702Z,10.97
2018-11-29T20:23:20.901Z,11.10
2018-11-29T20:25:50.124Z,10.53
2018-11-29T20:28:19.452Z,11.67
2018-11-29T20:30:48.804Z,10.47
2018-11-29T20:33:18.012Z,16.53
2018-11-29T20:35:47.005Z,23.77
2018-11-29T20:38:16.169Z,21.47
2018-11-29T20:40:46.100Z,22.63
2018-11-29T20:43:15.620Z,24.37
2018-11-29T20:45:53.928Z,16.20
2018-11-29T20:48:25.193Z,24.27
2018-11-29T20:50:55.187Z,24.50
2018-11-29T20:53:28.267Z,26.53
2018-11-29T20:55:57.403Z,23.73
2018-11-29T20:58:26.555Z,24.33
2018-11-29T21:00:55.736Z,19.93
2018-11-29T21:03:24.961Z,19.80
2018-11-29T21:05:54.139Z,24.93
2018-11-29T21:08:23.171Z,26.50
2018-11-29T21:10:52.487Z,27.10
2018-11-29T21:13:21.612Z,19.73
2018-11-29T21:15:50.883Z,16.33
2018-11-29T21:18:20.156Z,17.50
2018-11-29T21:20:49.392Z,16.97
2018-11-29T21:23:18.855Z,18.80
2018-11-29T21:25:47.846Z,18.17
2018-11-29T21:28:17.148Z,18.50
2018-11-29T21:30:46.477Z,19.77
2018-11-29T21:33:15.597Z,25.97
2018-11-29T21:35:44.727Z,34.60
2018-11-29T21:38:19.304Z,27.13
2018-11-29T21:40:50.400Z,22.23
2018-11-29T21:43:19.484Z,20.20
2018-11-29T21:45:48.839Z,19.93
2018-11-29T21:48:18.148Z,17.93
2018-11-29T21:50:47.243Z,19.23
2018-11-29T21:53:16.480Z,18.83
2018-11-29T21:55:45.575Z,23.20
2018-11-29T21:58:14.486Z,27.87
2018-11-29T22:00:43.676Z,25.67
2018-11-29T22:03:13.003Z,25.27
2018-11-29T22:05:42.155Z,24.47
2018-11-29T22:08:11.387Z,21.63
2018-11-29T22:10:40.746Z,19.73
2018-11-29T22:13:09.927Z,19.53
2018-11-29T22:15:38.840Z,18.30
2018-11-29T22:18:26.117Z,15.87
2018-11-29T22:20:59.416Z,16.50
2018-11-29T22:23:28.306Z,15.73
2018-11-29T22:25:58.659Z,15.13
2018-11-29T22:28:27.880Z,15.67
2018-11-29T22:30:57.441Z,15.57
2018-11-29T22:33:26.355Z,15.80
2018-11-29T22:35:55.498Z,16.30
2018-11-29T22:38:24.488Z,15.77
2018-11-29T22:40:53.755Z,16.17
2018-11-29T22:43:22.968Z,17.23
2018-11-29T22:45:52.068Z,16.27
2018-11-29T22:48:21.245Z,15.73
2018-11-29T22:50:50.368Z,17.37
2018-11-29T22:53:19.426Z,16.77
2018-11-29T22:55:48.515Z,16.27
2018-11-29T22:58:17.680Z,15.83
2018-11-29T23:00:50.107Z,17.20
2018-11-29T23:03:19.358Z,17.40
2018-11-29T23:05:48.596Z,16.77
2018-11-29T23:08:17.928Z,17.67
2018-11-29T23:10:46.838Z,18.27
2018-11-29T23:13:15.792Z,16.73
2018-11-29T23:15:44.837Z,16.53
2018-11-29T23:18:14.233Z,16.60
2018-11-29T23:20:43.475Z,16.70
2018-11-29T23:23:12.855Z,16.70
2018-11-29T23:25:42.197Z,17.57
2018-11-29T23:28:11.451Z,17.70
2018-11-29T23:30:40.772Z,17.50
2018-11-29T23:33:09.667Z,16.70
2018-11-29T23:35:39.128Z,17.70
2018-11-29T23:38:08.218Z,18.00
2018-11-29T23:40:37.483Z,17.87
2018-11-29T23:43:06.805Z,16.67
2018-11-29T23:45:35.951Z,17.77
2018-11-29T23:48:04.890Z,18.67
2018-11-29T23:50:33.988Z,20.53
2018-11-29T23:53:03.224Z,20.10
2018-11-29T23:55:32.587Z,20.47
2018-11-29T23:58:01.539Z,22.40
